createdAt,value
2022-11-10T00:03:34.727Z,1.6
2022-11-10T00:09:17.908Z,1.5
2022-11-10T00:15:00.972Z,1.6
2022-11-10T00:20:43.740Z,1.5
2022-11-10T00:26:26.333Z,1.6
2022-11-10T00:32:09.457Z,1.8
2022-11-10T00:37:53.672Z,1.7
2022-11-10T00:43:37.178Z,1.7
2022-11-10T00:49:19.938Z,1.5
2022-11-10T00:55:02.734Z,1.3
2022-11-10T01:00:45.716Z,1.5
2022-11-10T01:06:28.640Z,1.4
2022-11-10T01:12:11.889Z,1.4
2022-11-10T01:17:55.140Z,1.6
2022-11-10T01:23:37.970Z,1.4
2022-11-10T01:29:20.617Z,1.5
2022-11-10T01:35:03.356Z,1.5
2022-11-10T01:40:46.488Z,1.4
2022-11-10T01:46:29.542Z,1.4
2022-11-10T01:52:15.094Z,1.6
2022-11-10T01:57:58.338Z,1.3
2022-11-10T02:03:43.581Z,1.5
2022-11-10T02:09:26.842Z,1.6
2022-11-10T02:15:10.982Z,1.5
2022-11-10T02:20:53.759Z,1.3
2022-11-10T02:26:38.217Z,1.4
2022-11-10T02:32:21.291Z,1.4
2022-11-10T02:38:04.112Z,1.6
2022-11-10T02:43:46.834Z,1.8
2022-11-10T02:49:30.616Z,1.5
2022-11-10T02:55:13.614Z,1.3
2022-11-10T03:00:56.454Z,1.4
2022-11-10T03:06:39.697Z,1.6
2022-11-10T03:12:22.521Z,1.4
2022-11-10T03:18:08.138Z,1.4
2022-11-10T03:23:50.922Z,1.4
2022-11-10T03:29:33.914Z,1.5
2022-11-10T03:35:16.992Z,1.4
2022-11-10T03:41:19.087Z,1.4
2022-11-10T03:47:03.586Z,1.2
2022-11-10T03:52:46.924Z,1.4
2022-11-10T03:58:30.917Z,1.4
2022-11-10T04:04:16.151Z,1.3
2022-11-10T04:09:59.022Z,1.4
2022-11-10T04:15:43.720Z,1.4
2022-11-10T04:21:26.331Z,1.4
2022-11-10T04:27:09.239Z,1.3
2022-11-10T04:32:55.161Z,1.5
2022-11-10T04:38:37.930Z,1.5
2022-11-10T04:44:20.961Z,1.4
2022-11-10T04:50:03.889Z,1.8
2022-11-10T04:55:47.230Z,1.2
2022-11-10T05:01:30.258Z,1.6
2022-11-10T05:07:13.097Z,1.6
2022-11-10T05:12:58.433Z,1.2
2022-11-10T05:18:41.128Z,1.7
2022-11-10T05:24:24.150Z,1.6
2022-11-10T05:30:07.633Z,1.6
2022-11-10T05:35:51.525Z,1.3
2022-11-10T05:41:34.354Z,1.4
2022-11-10T05:47:17.156Z,1.5
2022-11-10T05:53:00.035Z,1.5
2022-11-10T05:58:43.768Z,1.7
2022-11-10T06:04:26.871Z,1.6
2022-11-10T06:10:11.395Z,1.6
2022-11-10T06:15:54.323Z,1.6
2022-11-10T06:21:38.075Z,1.5
2022-11-10T06:27:21.297Z,1.5
2022-11-10T06:33:04.160Z,1.3
2022-11-10T06:38:46.920Z,1.6
2022-11-10T06:44:30.572Z,1.7
2022-11-10T06:50:13.868Z,2
2022-11-10T06:55:56.765Z,1.6
2022-11-10T07:01:39.778Z,1.5
2022-11-10T07:07:22.618Z,1.7
2022-11-10T07:13:05.812Z,1.6
2022-11-10T07:18:48.674Z,1.8
2022-11-10T07:24:32.572Z,1.6
2022-11-10T07:30:15.897Z,2
2022-11-10T07:35:59.090Z,1.4
2022-11-10T07:41:41.669Z,1.8
2022-11-10T07:47:25.680Z,2
2022-11-10T07:53:10.195Z,1.7
2022-11-10T07:58:55.129Z,1.7
2022-11-10T08:04:37.933Z,1.9
2022-11-10T08:10:21.277Z,2.1
2022-11-10T08:16:04.056Z,2
2022-11-10T08:21:47.125Z,1.9
2022-11-10T08:27:30.032Z,2
2022-11-10T08:33:13.858Z,2
2022-11-10T08:38:56.844Z,2
2022-11-10T08:44:40.077Z,1.9
2022-11-10T08:50:22.964Z,2.2
2022-11-10T08:56:06.620Z,1.9
2022-11-10T09:01:55.376Z,2.1
2022-11-10T09:07:48.790Z,1.9
2022-11-10T09:13:33.942Z,1.7
2022-11-10T09:19:21.894Z,2
2022-11-10T09:25:05.129Z,2.2
2022-11-10T09:30:48.494Z,2
2022-11-10T09:36:32.526Z,2
2022-11-10T09:42:26.985Z,2
2022-11-10T09:48:15.797Z,1.9
2022-11-10T09:54:04.264Z,1.7
2022-11-10T09:59:47.349Z,2.6
2022-11-10T10:05:44.150Z,1.8
2022-11-10T10:11:35.215Z,2
2022-11-10T10:17:28.597Z,1.8
2022-11-10T10:23:54.336Z,1.9
2022-11-10T10:29:38.801Z,1.9
2022-11-10T10:35:24.081Z,1.8
2022-11-10T10:41:12.478Z,1.7
2022-11-10T10:47:01.818Z,1.7
2022-11-10T10:52:44.666Z,1.8
2022-11-10T10:58:29.274Z,1.7
2022-11-10T11:04:18.186Z,1.8
2022-11-10T11:10:02.302Z,1.5
2022-11-10T11:15:56.884Z,1.5
2022-11-10T11:21:45.701Z,1.6
2022-11-10T11:27:32.412Z,1.6
2022-11-10T11:33:22.905Z,1.7
2022-11-10T11:39:08.724Z,1.6
2022-11-10T11:45:01.365Z,1.6
2022-11-10T11:50:47.452Z,1.2
2022-11-10T11:56:32.823Z,1.3
2022-11-10T12:02:35.987Z,1.4
2022-11-10T12:08:29.332Z,1.4
2022-11-10T12:14:22.085Z,1.2
2022-11-10T12:20:14.760Z,1.4
2022-11-10T12:26:03.859Z,1.2
2022-11-10T12:31:48.349Z,1.3
2022-11-10T12:37:35.624Z,1.3
2022-11-10T12:43:30.310Z,1.1
2022-11-10T12:49:18.328Z,1.3
2022-11-10T12:55:02.250Z,1.2
2022-11-10T13:00:50.788Z,1.3
2022-11-10T13:06:35.953Z,1.2
2022-11-10T13:12:22.366Z,1.2
2022-11-10T13:18:10.208Z,1.2
2022-11-10T13:24:13.846Z,1.3
2022-11-10T13:30:00.135Z,1.2
2022-11-10T13:35:56.978Z,1.4
2022-11-10T13:41:46.865Z,1.1
2022-11-10T13:47:47.996Z,1.2
2022-11-10T13:53:38.037Z,1.1
2022-11-10T13:59:24.189Z,1.3
2022-11-10T14:05:09.708Z,1.3
2022-11-10T14:10:53.984Z,1.2
2022-11-10T14:16:41.733Z,1.2
2022-11-10T14:22:29.038Z,1.2
2022-11-10T14:28:27.905Z,1.2
2022-11-10T14:34:18.540Z,1.3
2022-11-10T14:40:02.825Z,1.5
2022-11-10T14:45:51.513Z,1.3
2022-11-10T14:51:35.896Z,1.5
2022-11-10T14:57:22.797Z,1.2
2022-11-10T15:03:07.303Z,1.3
2022-11-10T15:08:51.324Z,1.1
2022-11-10T15:14:39.544Z,1.5
2022-11-10T15:20:36.516Z,1.4
2022-11-10T15:26:23.434Z,1.3
2022-11-10T15:32:11.970Z,1.5
2022-11-10T15:38:03.610Z,1.6
2022-11-10T15:43:48.704Z,1.5
2022-11-10T15:49:34.662Z,1.6
2022-11-10T15:55:25.277Z,1.4
2022-11-10T16:01:10.737Z,1.6
2022-11-10T16:06:53.739Z,1.9
2022-11-10T16:12:37.472Z,1.5
2022-11-10T16:18:22.558Z,1.9
2022-11-10T16:24:06.276Z,2
2022-11-10T16:29:49.173Z,1.8
2022-11-10T16:35:32.017Z,2
2022-11-10T16:41:16.122Z,1.9
2022-11-10T16:46:59.091Z,1.9
2022-11-10T16:52:41.917Z,2.1
2022-11-10T16:58:26.495Z,2.1
2022-11-10T17:04:11.941Z,2.3
2022-11-10T17:09:54.805Z,2.5
2022-11-10T17:15:38.690Z,2.4
2022-11-10T17:21:22.012Z,2.2
2022-11-10T17:27:05.219Z,5.3
2022-11-10T17:33:04.536Z,4.8
2022-11-10T17:38:47.761Z,4.3
2022-11-10T17:44:30.700Z,4.5
2022-11-10T17:50:13.946Z,4.2
2022-11-10T17:55:56.680Z,4
2022-11-10T18:01:39.977Z,4.1
2022-11-10T18:07:22.872Z,3.9
2022-11-10T18:13:05.903Z,3.8
2022-11-10T18:18:49.681Z,3.9
2022-11-10T18:24:32.677Z,3.6
2022-11-10T18:30:16.560Z,3.7
2022-11-10T18:35:59.618Z,3.6
2022-11-10T18:41:43.080Z,3.1
2022-11-10T18:47:25.958Z,3.2
2022-11-10T18:53:08.769Z,3.3
2022-11-10T18:58:58.433Z,3.1
2022-11-10T19:04:41.399Z,3.1
2022-11-10T19:10:24.352Z,3
2022-11-10T19:16:09.499Z,3.5
2022-11-10T19:21:52.345Z,3.2
2022-11-10T19:27:35.185Z,3.1
2022-11-10T19:33:19.342Z,3.1
2022-11-10T19:39:02.824Z,2.9
2022-11-10T19:44:45.712Z,3.5
2022-11-10T19:50:28.754Z,3.4
2022-11-10T19:56:14.003Z,3.7
2022-11-10T20:01:56.801Z,3.6
2022-11-10T20:07:39.517Z,4
2022-11-10T20:13:23.238Z,4
2022-11-10T20:19:06.746Z,3.7
2022-11-10T20:24:53.081Z,3.7
2022-11-10T20:30:36.459Z,3.8
2022-11-10T20:36:22.433Z,3.8
2022-11-10T20:42:05.270Z,3.5
2022-11-10T20:47:48.226Z,3.2
2022-11-10T20:53:30.849Z,3.5
2022-11-10T20:59:13.634Z,3.5
2022-11-10T21:04:56.417Z,3.3
2022-11-10T21:10:40.328Z,3.3
2022-11-10T21:16:24.289Z,3.3
2022-11-10T21:22:08.559Z,3.2
2022-11-10T21:27:51.395Z,3.4
2022-11-10T21:33:34.787Z,3.4
2022-11-10T21:39:17.503Z,3.1
2022-11-10T21:45:00.239Z,3.2
2022-11-10T21:50:42.944Z,3
2022-11-10T21:56:25.761Z,3.3
2022-11-10T22:02:09.994Z,2.9
2022-11-10T22:07:52.816Z,3.1
2022-11-10T22:13:36.657Z,2.9
2022-11-10T22:19:22.205Z,3
2022-11-10T22:25:06.261Z,3.2
2022-11-10T22:30:49.115Z,3.1
2022-11-10T22:36:32.027Z,3
2022-11-10T22:42:15.959Z,3.1
2022-11-10T22:47:58.920Z,3
2022-11-10T22:53:41.669Z,3
2022-11-10T22:59:24.930Z,2.8
2022-11-10T23:05:08.050Z,3
2022-11-10T23:10:50.990Z,2.9
2022-11-10T23:16:34.988Z,3
2022-11-10T23:22:17.713Z,3.3
2022-11-10T23:28:01.435Z,3.3
2022-11-10T23:33:45.580Z,3.2
2022-11-10T23:39:28.465Z,3.1
2022-11-10T23:45:12.437Z,3.4
2022-11-10T23:50:55.340Z,3.2
2022-11-10T23:56:38.076Z,3.3
